createdAt,value
2023-03-27T00:00:16.708Z,62.49
2023-03-27T00:03:20.024Z,62.83
2023-03-27T00:06:24.873Z,63.15
2023-03-27T00:09:32.676Z,62.75
2023-03-27T00:12:35.245Z,62.67
2023-03-27T00:15:38.640Z,63.01
2023-03-27T00:18:41.124Z,63.07
2023-03-27T00:21:44.957Z,63.15
2023-03-27T00:24:48.736Z,62.99
2023-03-27T00:27:51.376Z,62.85
2023-03-27T00:30:54.943Z,62.81
2023-03-27T00:33:57.951Z,62.55
2023-03-27T00:37:00.491Z,62.87
2023-03-27T00:40:08.052Z,62.69
2023-03-27T00:43:21.689Z,62.62
2023-03-27T00:46:35.982Z,62.47
2023-03-27T00:49:39.465Z,62.53
2023-03-27T00:52:45.009Z,62.71
2023-03-27T00:55:52.578Z,62.65
2023-03-27T00:58:59.336Z,62.56
2023-03-27T01:02:02.289Z,62.71
2023-03-27T01:05:05.317Z,62.37
2023-03-27T01:08:08.787Z,62.47
2023-03-27T01:11:19.870Z,62.38
2023-03-27T01:14:29.374Z,62.21
2023-03-27T01:17:49.743Z,62.42
2023-03-27T01:21:22.430Z,62.39
2023-03-27T01:24:57.837Z,62.55
2023-03-27T01:28:29.071Z,62.88
2023-03-27T01:31:49.002Z,62.75
2023-03-27T01:35:20.797Z,62.71
2023-03-27T01:38:44.898Z,62.68
2023-03-27T01:41:57.853Z,62.97
2023-03-27T01:45:06.017Z,62.74
2023-03-27T01:48:14.288Z,62.46
2023-03-27T01:51:21.316Z,62.50
2023-03-27T01:54:29.450Z,62.27
2023-03-27T01:57:48.930Z,62.21
2023-03-27T02:00:57.053Z,62.47
2023-03-27T02:04:06.287Z,62.08
2023-03-27T02:07:13.952Z,62.60
2023-03-27T02:10:22.123Z,62.47
2023-03-27T02:13:30.650Z,62.29
2023-03-27T02:16:36.821Z,62.44
2023-03-27T02:19:47.333Z,62.70
2023-03-27T02:22:49.876Z,62.41
2023-03-27T02:25:54.518Z,62.27
2023-03-27T02:29:08.332Z,62.36
2023-03-27T02:32:25.318Z,62.46
2023-03-27T02:35:36.402Z,62.03
2023-03-27T02:38:44.091Z,62.74
2023-03-27T02:41:52.067Z,62.44
2023-03-27T02:45:02.736Z,62.43
2023-03-27T02:48:11.346Z,62.24
2023-03-27T02:51:18.758Z,62.21
2023-03-27T02:54:27.398Z,62.01
2023-03-27T02:57:34.073Z,62.00
2023-03-27T03:00:43.680Z,62.09
2023-03-27T03:03:53.885Z,62.04
2023-03-27T03:06:56.930Z,61.63
2023-03-27T03:09:59.374Z,61.81
2023-03-27T03:13:01.863Z,61.42
2023-03-27T03:16:07.196Z,61.55
2023-03-27T03:19:09.911Z,61.52
2023-03-27T03:22:13.274Z,61.66
2023-03-27T03:25:15.919Z,61.59
2023-03-27T03:28:19.077Z,61.69
2023-03-27T03:31:23.416Z,61.55
2023-03-27T03:34:27.890Z,61.84
2023-03-27T03:37:30.412Z,61.54
2023-03-27T03:40:33.572Z,61.62
2023-03-27T03:43:36.352Z,61.62
2023-03-27T03:46:40.958Z,61.75
2023-03-27T03:49:43.475Z,62.07
2023-03-27T03:52:47.199Z,61.73
2023-03-27T03:55:52.393Z,61.88
2023-03-27T03:58:54.849Z,61.64
2023-03-27T04:01:59.015Z,61.70
2023-03-27T04:05:08.616Z,61.64
2023-03-27T04:08:12.411Z,61.53
2023-03-27T04:11:14.933Z,62.02
2023-03-27T04:14:17.328Z,62.04
2023-03-27T04:17:23.246Z,61.99
2023-03-27T04:20:26.509Z,61.65
2023-03-27T04:23:30.318Z,61.91
2023-03-27T04:26:33.011Z,62.01
2023-03-27T04:29:35.685Z,61.40
2023-03-27T04:32:39.561Z,61.74
2023-03-27T04:35:44.945Z,61.51
2023-03-27T04:38:49.189Z,61.54
2023-03-27T04:41:53.772Z,60.82
2023-03-27T04:44:56.635Z,60.47
2023-03-27T04:48:00.737Z,60.46
2023-03-27T04:51:03.421Z,60.58
2023-03-27T04:54:07.320Z,60.50
2023-03-27T04:57:10.109Z,60.52
2023-03-27T05:00:17.005Z,60.44
2023-03-27T05:03:20.807Z,60.58
2023-03-27T05:06:23.844Z,60.30
2023-03-27T05:09:27.400Z,60.63
2023-03-27T05:12:29.900Z,60.55
2023-03-27T05:15:33.507Z,60.17
2023-03-27T05:18:38.342Z,60.04
2023-03-27T05:21:46.326Z,60.16
2023-03-27T05:24:49.193Z,60.60
2023-03-27T05:27:53.287Z,60.49
2023-03-27T05:30:57.139Z,60.45
2023-03-27T05:34:01.185Z,60.56
2023-03-27T05:45:55.255Z,60.40
2023-03-27T05:53:28.523Z,60.46
2023-03-27T05:56:32.228Z,59.94
2023-03-27T05:59:35.038Z,60.08
2023-03-27T06:02:37.853Z,60.25
2023-03-27T06:05:42.412Z,60.45
2023-03-27T06:08:45.056Z,60.67
2023-03-27T06:11:48.148Z,60.37
2023-03-27T06:14:51.432Z,60.84
2023-03-27T06:17:54.463Z,60.18
2023-03-27T06:20:59.045Z,59.86
2023-03-27T06:24:01.967Z,60.14
2023-03-27T06:27:04.578Z,60.63
2023-03-27T06:30:09.405Z,60.45
2023-03-27T06:33:12.536Z,60.40
2023-03-27T06:36:18.151Z,60.14
2023-03-27T06:39:21.543Z,59.96
2023-03-27T06:43:30.412Z,60.49
2023-03-27T07:12:08.852Z,60.25
2023-03-27T07:15:48.604Z,60.41
2023-03-27T07:19:14.870Z,60.72
2023-03-27T07:22:36.487Z,60.24
2023-03-27T07:46:25.703Z,59.94
2023-03-27T07:49:38.895Z,60.37
2023-03-27T07:52:45.098Z,60.06
2023-03-27T07:55:48.637Z,59.34
2023-03-27T08:16:17.377Z,60.33
2023-03-27T08:19:21.292Z,60.24
2023-03-27T08:22:24.685Z,59.73
2023-03-27T08:25:29.673Z,59.49
2023-03-27T08:28:34.069Z,59.89
2023-03-27T08:31:38.027Z,60.08
2023-03-27T08:34:42.393Z,60.02
2023-03-27T08:37:45.056Z,59.72
2023-03-27T08:40:49.330Z,60.01
2023-03-27T08:43:53.311Z,61.31
2023-03-27T08:47:01.350Z,60.49
2023-03-27T08:50:07.256Z,60.81
2023-03-27T08:53:19.651Z,59.24
2023-03-27T08:56:22.570Z,59.47
2023-03-27T08:59:27.697Z,59.40
2023-03-27T09:02:44.921Z,59.89
2023-03-27T09:05:54.370Z,60.01
2023-03-27T09:09:04.899Z,59.38
2023-03-27T09:12:21.908Z,58.83
2023-03-27T09:15:29.008Z,59.09
2023-03-27T09:18:37.248Z,58.96
2023-03-27T09:21:46.433Z,59.71
2023-03-27T09:24:51.876Z,59.74
2023-03-27T09:27:54.936Z,59.97
2023-03-27T09:30:59.963Z,59.88
2023-03-27T09:34:09.043Z,59.56
2023-03-27T09:37:13.542Z,59.56
2023-03-27T09:40:23.737Z,59.65
2023-03-27T09:43:29.572Z,59.55
2023-03-27T09:46:34.067Z,59.39
2023-03-27T09:49:41.174Z,59.76
2023-03-27T09:52:43.879Z,59.16
2023-03-27T09:55:52.980Z,59.12
2023-03-27T09:58:57.175Z,59.28
2023-03-27T10:02:01.530Z,59.33
2023-03-27T10:05:12.196Z,59.14
2023-03-27T10:08:33.192Z,58.99
2023-03-27T10:11:36.691Z,59.21
2023-03-27T10:14:41.976Z,60.17
2023-03-27T10:17:49.936Z,60.10
2023-03-27T10:20:55.856Z,59.40
2023-03-27T10:24:05.702Z,59.51
2023-03-27T10:27:12.087Z,59.23
2023-03-27T10:30:28.854Z,59.56
2023-03-27T10:33:33.638Z,59.46
2023-03-27T10:36:39.691Z,59.59
2023-03-27T10:39:44.355Z,59.10
2023-03-27T10:42:48.869Z,59.07
2023-03-27T10:45:54.585Z,58.96
2023-03-27T10:49:04.649Z,58.69
2023-03-27T10:52:18.113Z,58.88
2023-03-27T10:55:36.757Z,59.09
2023-03-27T10:58:45.399Z,59.41
2023-03-27T11:01:53.046Z,59.46
2023-03-27T11:04:59.945Z,59.18
2023-03-27T11:08:10.154Z,59.50
2023-03-27T11:11:18.745Z,59.34
2023-03-27T11:14:26.806Z,59.46
2023-03-27T11:17:34.237Z,58.79
2023-03-27T11:20:44.286Z,59.40
2023-03-27T11:23:53.301Z,59.05
2023-03-27T11:27:04.750Z,58.84
2023-03-27T11:30:28.284Z,59.02
2023-03-27T11:33:41.466Z,59.09
2023-03-27T11:36:49.473Z,59.42
2023-03-27T11:40:01.483Z,59.43
2023-03-27T11:43:04.744Z,57.47
2023-03-27T11:46:21.368Z,57.43
2023-03-27T11:49:39.378Z,58.25
2023-03-27T11:52:54.332Z,58.76
2023-03-27T11:56:11.406Z,58.58
2023-03-27T11:59:29.616Z,58.23
2023-03-27T12:02:53.007Z,58.44
2023-03-27T12:06:07.567Z,58.66
2023-03-27T12:09:20.733Z,59.00
2023-03-27T12:13:04.229Z,58.33
2023-03-27T12:16:23.201Z,58.51
2023-03-27T12:19:39.633Z,58.87
2023-03-27T12:22:50.561Z,58.63
2023-03-27T12:26:33.400Z,58.50
2023-03-27T12:29:48.571Z,58.49
2023-03-27T12:33:03.352Z,58.60
2023-03-27T12:36:08.323Z,58.68
2023-03-27T12:39:21.081Z,58.65
2023-03-27T12:42:51.079Z,58.75
2023-03-27T12:46:17.210Z,59.06
2023-03-27T13:03:53.704Z,58.57
2023-03-27T13:16:22.968Z,58.39
2023-03-27T13:19:39.059Z,58.48
2023-03-27T13:22:57.030Z,58.77
2023-03-27T13:26:30.252Z,58.34
2023-03-27T13:29:35.042Z,58.48
2023-03-27T13:32:40.012Z,58.58
2023-03-27T13:35:53.675Z,58.69
2023-03-27T13:39:24.983Z,58.41
2023-03-27T13:42:33.652Z,58.64
2023-03-27T13:45:46.534Z,58.44
2023-03-27T13:49:05.837Z,58.71
2023-03-27T13:52:31.554Z,58.90
2023-03-27T13:55:51.385Z,58.85
2023-03-27T13:59:15.267Z,59.46
2023-03-27T14:02:36.896Z,59.18
2023-03-27T14:06:04.848Z,59.18
2023-03-27T14:09:18.200Z,58.97
2023-03-27T14:12:25.492Z,58.98
2023-03-27T14:15:42.977Z,58.82
2023-03-27T14:19:02.392Z,58.93
2023-03-27T14:22:14.465Z,58.84
2023-03-27T14:25:20.267Z,59.18
2023-03-27T14:28:32.454Z,58.50
2023-03-27T14:31:35.869Z,58.47
2023-03-27T14:37:59.996Z,58.62
2023-03-27T14:41:05.135Z,58.37
2023-03-27T14:44:08.458Z,58.73
2023-03-27T14:47:16.109Z,58.95
2023-03-27T14:50:19.266Z,58.97
2023-03-27T14:53:27.802Z,58.86
2023-03-27T14:56:37.026Z,59.38
2023-03-27T14:59:42.903Z,58.95
2023-03-27T15:02:48.198Z,59.04
2023-03-27T15:05:57.214Z,59.04
2023-03-27T15:09:05.391Z,59.13
2023-03-27T15:12:11.149Z,58.64
2023-03-27T15:15:23.056Z,58.65
2023-03-27T15:18:32.794Z,58.57
2023-03-27T15:21:44.248Z,58.79
2023-03-27T15:24:53.759Z,58.80
2023-03-27T15:28:00.710Z,58.89
2023-03-27T15:31:05.135Z,59.27
2023-03-27T15:34:14.305Z,59.20
2023-03-27T15:37:19.820Z,59.10
2023-03-27T15:40:36.602Z,59.03
2023-03-27T15:43:39.301Z,59.15
2023-03-27T15:46:55.321Z,59.31
2023-03-27T15:50:06.900Z,59.74
2023-03-27T15:53:09.988Z,59.24
2023-03-27T15:56:22.770Z,59.50
2023-03-27T15:59:27.309Z,59.05
2023-03-27T16:02:30.763Z,59.23
2023-03-27T16:05:33.464Z,58.87
2023-03-27T16:08:38.848Z,59.18
2023-03-27T16:11:46.057Z,58.92
2023-03-27T16:14:54.453Z,60.05
2023-03-27T16:17:58.974Z,59.41
2023-03-27T16:21:07.805Z,59.71
2023-03-27T16:24:10.263Z,59.22
2023-03-27T16:27:14.285Z,59.28
2023-03-27T16:30:23.566Z,59.12
2023-03-27T16:33:28.489Z,59.14
2023-03-27T16:36:32.873Z,59.01
2023-03-27T16:39:35.594Z,58.87
2023-03-27T16:42:39.555Z,58.95
2023-03-27T16:45:42.195Z,59.30
2023-03-27T16:48:44.677Z,58.87
2023-03-27T16:51:47.158Z,59.28
2023-03-27T16:54:49.644Z,59.41
2023-03-27T16:57:54.675Z,59.14
2023-03-27T17:00:57.198Z,58.84
2023-03-27T17:03:59.692Z,59.11
2023-03-27T17:07:02.149Z,58.80
2023-03-27T17:10:06.599Z,58.97
2023-03-27T17:13:10.961Z,58.99
2023-03-27T17:16:13.546Z,59.09
2023-03-27T17:19:16.524Z,58.87
2023-03-27T17:22:19.352Z,59.04
2023-03-27T17:25:21.872Z,59.11
2023-03-27T17:28:26.119Z,58.68
2023-03-27T17:31:30.792Z,58.71
2023-03-27T17:34:33.768Z,58.94
2023-03-27T17:37:36.430Z,58.74
2023-03-27T17:40:43.132Z,58.85
2023-03-27T17:43:47.312Z,59.14
2023-03-27T17:46:50.123Z,59.02
2023-03-27T17:49:54.305Z,58.98
2023-03-27T17:52:57.259Z,58.86
2023-03-27T17:55:59.968Z,58.75
2023-03-27T17:59:05.972Z,58.71
2023-03-27T18:02:08.756Z,58.49
2023-03-27T18:05:11.382Z,58.76
2023-03-27T18:08:15.896Z,58.67
2023-03-27T18:11:18.642Z,58.92
2023-03-27T18:14:22.560Z,58.77
2023-03-27T18:17:25.378Z,58.80
2023-03-27T18:20:27.858Z,58.93
2023-03-27T18:23:31.339Z,58.52
2023-03-27T18:26:34.245Z,58.43
2023-03-27T18:29:38.340Z,58.59
2023-03-27T18:32:42.719Z,58.04
2023-03-27T18:35:46.865Z,58.52
2023-03-27T18:38:50.050Z,58.22
2023-03-27T18:41:54.894Z,58.61
2023-03-27T18:44:58.759Z,58.58
2023-03-27T18:48:01.429Z,58.57
2023-03-27T18:51:06.709Z,58.32
2023-03-27T18:54:09.487Z,58.03
2023-03-27T18:57:12.490Z,58.61
2023-03-27T19:00:18.406Z,58.30
2023-03-27T19:03:23.385Z,58.29
2023-03-27T19:06:26.081Z,58.51
2023-03-27T19:09:40.699Z,58.19
2023-03-27T19:12:44.326Z,58.64
2023-03-27T19:15:49.036Z,58.61
2023-03-27T19:18:51.481Z,58.36
2023-03-27T19:21:54.452Z,58.62
2023-03-27T19:24:56.970Z,58.67
2023-03-27T19:27:59.477Z,58.54
2023-03-27T19:31:06.998Z,58.44
2023-03-27T19:34:09.466Z,58.44
2023-03-27T19:37:12.099Z,58.74
2023-03-27T19:40:15.661Z,58.37
2023-03-27T19:43:18.878Z,58.34
2023-03-27T19:46:24.393Z,58.62
2023-03-27T19:49:26.856Z,58.43
2023-03-27T19:52:29.367Z,58.65
2023-03-27T19:55:31.757Z,58.17
2023-03-27T19:58:34.527Z,58.62
2023-03-27T20:01:44.051Z,58.53
2023-03-27T20:04:46.823Z,58.57
2023-03-27T20:07:49.354Z,58.51
2023-03-27T20:10:52.008Z,58.42
2023-03-27T20:13:56.991Z,57.77
2023-03-27T20:17:01.368Z,58.39
2023-03-27T20:20:06.067Z,58.05
2023-03-27T20:23:10.010Z,57.99
2023-03-27T20:26:13.933Z,58.31
2023-03-27T20:29:19.209Z,58.73
2023-03-27T20:32:23.240Z,58.68
2023-03-27T20:35:26.053Z,58.22
2023-03-27T20:38:31.712Z,58.46
2023-03-27T20:41:38.931Z,58.44
2023-03-27T20:44:42.964Z,58.58
2023-03-27T20:47:48.259Z,58.54
2023-03-27T20:50:52.434Z,58.20
2023-03-27T20:53:58.357Z,58.47
2023-03-27T20:57:01.534Z,58.30
2023-03-27T21:00:06.942Z,58.29
2023-03-27T21:03:11.999Z,58.16
2023-03-27T21:06:17.181Z,58.67
2023-03-27T21:09:19.649Z,58.24
2023-03-27T21:12:22.166Z,57.90
2023-03-27T21:15:24.707Z,58.05
2023-03-27T21:18:28.493Z,58.19
2023-03-27T21:21:32.095Z,58.08
2023-03-27T21:24:34.521Z,58.26
2023-03-27T21:27:36.946Z,58.30
2023-03-27T21:30:46.358Z,58.32
2023-03-27T21:33:51.716Z,58.07
2023-03-27T21:36:54.323Z,57.54
2023-03-27T21:39:56.914Z,57.25
2023-03-27T21:43:00.560Z,57.46
2023-03-27T21:46:03.905Z,57.95
2023-03-27T21:49:07.959Z,57.75
2023-03-27T21:52:11.088Z,57.79
2023-03-27T21:55:13.607Z,57.67
2023-03-27T21:58:16.115Z,57.71
2023-03-27T22:01:18.781Z,57.50
2023-03-27T22:04:23.120Z,57.45
2023-03-27T22:07:25.626Z,57.39
2023-03-27T22:10:29.130Z,57.34
2023-03-27T22:13:33.078Z,56.94
2023-03-27T22:16:36.203Z,57.84
2023-03-27T22:19:40.019Z,57.18
2023-03-27T22:22:42.633Z,57.41
2023-03-27T22:25:52.781Z,57.59
2023-03-27T22:28:56.441Z,57.99
2023-03-27T22:31:59.021Z,57.62
2023-03-27T22:35:03.048Z,57.38
2023-03-27T22:38:05.471Z,57.21
2023-03-27T22:41:10.253Z,57.23
2023-03-27T22:44:12.949Z,57.27
2023-03-27T22:47:15.540Z,57.42
2023-03-27T22:50:19.375Z,57.76
2023-03-27T22:53:22.161Z,57.56
2023-03-27T22:56:24.781Z,57.79
2023-03-27T22:59:27.360Z,57.50
2023-03-27T23:02:30.048Z,57.32
2023-03-27T23:05:39.386Z,57.65
2023-03-27T23:08:41.911Z,57.71
2023-03-27T23:11:45.354Z,57.33
2023-03-27T23:14:47.759Z,57.42
2023-03-27T23:17:50.272Z,57.46
2023-03-27T23:20:59.080Z,57.47
2023-03-27T23:24:01.656Z,58.04
2023-03-27T23:27:05.043Z,57.39
2023-03-27T23:30:08.985Z,57.55
2023-03-27T23:33:12.428Z,57.77
2023-03-27T23:36:18.091Z,57.92
2023-03-27T23:39:20.976Z,57.68
2023-03-27T23:42:23.730Z,57.53
2023-03-27T23:45:26.245Z,57.19
2023-03-27T23:48:29.714Z,57.94
2023-03-27T23:51:33.621Z,57.69
2023-03-27T23:54:36.484Z,57.74
2023-03-27T23:57:39.354Z,57.78
